Pinnacle, North Carolina
Current Conditions -  °F | °C
As of 12:15 PM on Thursday 30 Oct 2014 (Local Time) from KMWK Reporting Station
Clear Clear  
Wind Chill: 58°   Ceiling: Unl
Heat Index: 58°   Visibility: 10mi
Dew Point: 38°   Wind: 6mph
Humidity: 48%   Direction: 340°NNW
Pressure: 30.09"   Gusts: NA
Location:  36.33°N, 80.43°W
Report Text: KMWK 301615Z AUTO 34005KT 10SM CLR 14/04 A3009 RMK AO2 T01440036
Loading
Personal Weather Stations






























Interactive Weather Map
Tropical Storm Tracking
New forecast layout! Learn more

10-Day Weather Forecast

Advertisements
Track Severe Weather on mobile